Time;durP1;ratioP1;P1;durP2;ratioP2;P2;SDS_P1;SDS_P2;PMS_P1;PMS_P2;Temp;Humidity;BMP_temperature;BMP_pressure;BME280_temperature;BME280_humidity;BME280_pressure;Samples;Min_cycle;Max_cycle;Signal;HPM_P1;HPM_P2
2022/04/25 00:01:58;;;;;;;15.65;4.43;;;12.40;99.90;;;;;;5073362;28;20016;-72
2022/04/25 00:04:24;;;;;;;14.00;5.07;;;12.40;99.90;;;;;;5073466;28;20035;-72
2022/04/25 00:06:50;;;;;;;13.48;5.80;;;12.40;99.90;;;;;;5073422;28;20147;-72
2022/04/25 00:09:16;;;;;;;16.35;5.10;;;12.30;99.90;;;;;;5072921;28;20024;-69
2022/04/25 00:11:42;;;;;;;13.85;4.35;;;12.30;99.90;;;;;;5072640;28;20064;-71
2022/04/25 00:14:08;;;;;;;12.07;4.60;;;12.20;99.90;;;;;;5073409;28;20029;-70
2022/04/25 00:16:34;;;;;;;16.40;5.72;;;12.10;99.90;;;;;;5073748;28;20024;-70
2022/04/25 00:19:00;;;;;;;13.05;5.40;;;12.10;99.90;;;;;;5074132;28;20048;-72
2022/04/25 00:21:26;;;;;;;11.38;4.95;;;12.10;99.90;;;;;;5073654;28;20028;-71
2022/04/25 00:23:52;;;;;;;14.07;4.10;;;12.10;99.90;;;;;;5072719;28;20033;-68
2022/04/25 00:26:18;;;;;;;13.10;5.60;;;12.20;99.90;;;;;;5074121;28;20031;-71
2022/04/25 00:28:44;;;;;;;12.68;3.83;;;12.10;99.90;;;;;;5073723;28;20032;-72
2022/04/25 00:31:10;;;;;;;11.15;4.32;;;12.10;99.90;;;;;;5073843;28;20028;-70
2022/04/25 00:33:36;;;;;;;10.25;4.13;;;12.10;99.90;;;;;;5073672;28;20082;-71
2022/04/25 00:36:03;;;;;;;15.70;4.72;;;12.00;99.90;;;;;;5073727;28;20067;-71
2022/04/25 00:38:29;;;;;;;13.55;4.35;;;12.10;99.90;;;;;;5073808;28;20033;-72
2022/04/25 00:40:54;;;;;;;17.20;4.60;;;12.20;99.90;;;;;;5073869;28;20046;-68
2022/04/25 00:43:20;;;;;;;12.23;3.95;;;12.20;99.90;;;;;;5073424;28;20028;-72
2022/04/25 00:45:46;;;;;;;12.25;4.05;;;12.20;99.90;;;;;;5073627;28;20452;-70
2022/04/25 00:48:12;;;;;;;12.10;4.63;;;12.20;99.90;;;;;;5073424;28;20474;-72
2022/04/25 00:50:39;;;;;;;16.60;4.05;;;12.20;99.90;;;;;;5073311;28;20044;-70
2022/04/25 00:53:05;;;;;;;12.35;4.47;;;12.30;99.90;;;;;;5073594;28;20020;-70
2022/04/25 00:55:32;;;;;;;15.20;5.22;;;12.30;99.90;;;;;;5073556;28;20429;-71
2022/04/25 00:57:58;;;;;;;16.55;4.88;;;12.20;99.90;;;;;;5073471;28;20017;-72
2022/04/25 01:00:25;;;;;;;14.13;6.20;;;12.30;99.90;;;;;;5073284;28;20028;-73
2022/04/25 01:02:51;;;;;;;16.00;6.35;;;11.90;99.90;;;;;;5073668;28;20024;-70
2022/04/25 01:05:16;;;;;;;22.85;7.70;;;11.90;99.90;;;;;;5073299;28;20131;-69
2022/04/25 01:07:42;;;;;;;11.27;5.95;;;12.00;99.90;;;;;;5073280;28;20035;-71
2022/04/25 01:10:10;;;;;;;21.77;8.15;;;11.90;99.90;;;;;;5073201;28;20033;-72
2022/04/25 01:12:36;;;;;;;20.73;9.02;;;11.90;99.90;;;;;;5073207;28;20109;-73
2022/04/25 01:15:07;;;;;;;21.67;8.82;;;11.90;99.90;;;;;;5072843;28;20089;-70
2022/04/25 01:17:33;;;;;;;17.13;6.93;;;11.90;99.90;;;;;;5072990;28;20029;-72
2022/04/25 01:19:59;;;;;;;18.95;9.60;;;11.90;99.90;;;;;;5072623;28;20100;-71
2022/04/25 01:22:31;;;;;;;19.83;9.55;;;11.60;99.90;;;;;;5072709;28;20035;-72
2022/04/25 01:27:42;;;;;;;19.90;8.75;;;11.70;99.90;;;;;;5072667;28;20037;-71
2022/04/25 01:30:09;;;;;;;21.77;9.00;;;11.80;99.90;;;;;;5072296;28;20035;-70
2022/04/25 01:32:37;;;;;;;20.00;8.35;;;11.80;99.90;;;;;;5071878;28;20048;-72
2022/04/25 01:35:05;;;;;;;18.85;8.93;;;11.70;99.90;;;;;;5066998;28;20061;-72
2022/04/25 01:37:31;;;;;;;19.15;9.05;;;11.60;99.90;;;;;;5069237;28;20472;-72
2022/04/25 01:39:58;;;;;;;15.18;7.78;;;11.70;99.90;;;;;;5073764;28;20090;-72
2022/04/25 01:42:26;;;;;;;18.55;9.13;;;11.80;99.90;;;;;;5067648;28;20174;-73
2022/04/25 01:44:52;;;;;;;23.42;11.07;;;11.80;99.90;;;;;;5069726;28;20713;-71
2022/04/25 01:47:18;;;;;;;24.23;11.55;;;11.90;99.90;;;;;;5077576;28;20035;-71
2022/04/25 01:49:44;;;;;;;23.70;11.15;;;12.00;99.90;;;;;;5092393;28;20032;-72
2022/04/25 01:52:27;;;;;;;21.00;10.55;;;11.90;99.90;;;;;;5073130;28;20020;-71
2022/04/25 01:54:53;;;;;;;26.15;10.57;;;12.00;99.90;;;;;;5072259;28;20030;-71
2022/04/25 01:57:19;;;;;;;20.45;10.48;;;11.90;99.90;;;;;;5072430;28;20024;-70
2022/04/25 01:59:45;;;;;;;19.90;8.98;;;11.90;99.90;;;;;;5070813;28;20060;-71
2022/04/25 02:02:12;;;;;;;23.40;8.82;;;11.80;99.90;;;;;;5072171;28;20020;-72
2022/04/25 02:04:40;;;;;;;20.15;9.13;;;11.90;99.90;;;;;;5072180;28;20108;-72
2022/04/25 02:07:07;;;;;;;20.48;9.57;;;11.90;99.90;;;;;;5072080;28;20029;-65
2022/04/25 02:09:34;;;;;;;19.05;8.35;;;11.90;99.90;;;;;;5071171;28;20081;-68
2022/04/25 02:11:59;;;;;;;23.20;8.95;;;11.90;99.90;;;;;;5071634;28;20085;-72
2022/04/25 02:14:29;;;;;;;20.65;7.78;;;11.90;99.90;;;;;;5071520;28;20100;-71
2022/04/25 02:16:58;;;;;;;24.48;8.80;;;11.90;99.90;;;;;;5071595;28;20032;-71
2022/04/25 02:19:28;;;;;;;18.00;8.55;;;11.70;99.90;;;;;;5071549;28;20126;-72
2022/04/25 02:21:55;;;;;;;30.95;9.43;;;11.50;99.90;;;;;;5071599;28;20728;-71
2022/04/25 02:24:21;;;;;;;18.92;9.10;;;11.50;99.90;;;;;;5071763;28;20016;-70
2022/04/25 02:26:48;;;;;;;20.42;9.20;;;11.60;99.90;;;;;;5071641;28;20036;-72
2022/04/25 02:29:15;;;;;;;25.60;9.10;;;11.60;99.90;;;;;;5072431;28;20020;-73
2022/04/25 02:31:41;;;;;;;17.52;8.32;;;11.70;99.90;;;;;;5059978;28;20035;-73
2022/04/25 02:34:07;;;;;;;17.05;8.23;;;11.70;99.90;;;;;;5071869;28;20028;-72
2022/04/25 02:36:34;;;;;;;16.75;7.50;;;11.80;99.90;;;;;;5071802;28;20398;-72
2022/04/25 02:39:00;;;;;;;18.67;7.75;;;11.80;99.90;;;;;;5071943;28;20109;-72
2022/04/25 02:41:26;;;;;;;19.15;6.68;;;12.00;99.90;;;;;;5071511;28;20458;-73
2022/04/25 02:43:51;;;;;;;17.35;6.78;;;12.10;99.90;;;;;;5071623;28;20111;-73
2022/04/25 02:46:18;;;;;;;16.58;5.97;;;12.10;99.90;;;;;;5070176;28;20078;-73
2022/04/25 02:48:45;;;;;;;16.08;6.05;;;12.10;99.90;;;;;;5071294;28;20028;-72
2022/04/25 02:51:13;;;;;;;14.10;5.20;;;12.10;99.90;;;;;;5071518;28;20088;-73
2022/04/25 02:53:39;;;;;;;17.70;7.10;;;12.10;99.90;;;;;;5071661;28;20020;-73
2022/04/25 02:56:06;;;;;;;13.88;6.68;;;12.20;99.90;;;;;;5071383;28;20033;-72
2022/04/25 02:58:33;;;;;;;19.48;8.40;;;12.30;99.90;;;;;;5095124;28;20017;-73
2022/04/25 03:00:59;;;;;;;17.90;7.47;;;12.30;99.90;;;;;;5095640;28;20489;-73
2022/04/25 03:03:26;;;;;;;15.00;5.93;;;12.40;99.90;;;;;;5096060;28;20131;-72
2022/04/25 03:05:53;;;;;;;12.60;3.75;;;12.40;99.90;;;;;;5076733;28;20021;-73
2022/04/25 03:08:21;;;;;;;5.88;2.38;;;12.50;99.90;;;;;;5077718;28;20021;-73
2022/04/25 03:10:48;;;;;;;5.82;2.00;;;12.60;99.90;;;;;;5075643;28;20056;-73
2022/04/25 03:13:16;;;;;;;3.45;2.20;;;12.60;99.90;;;;;;5075277;28;20017;-72
2022/04/25 03:15:43;;;;;;;4.63;1.75;;;12.60;99.90;;;;;;5092482;28;20036;-73
2022/04/25 03:18:11;;;;;;;3.63;1.30;;;12.60;99.90;;;;;;5094863;28;20480;-72
2022/04/25 03:20:39;;;;;;;3.85;1.63;;;12.60;99.90;;;;;;5095265;28;20468;-72
2022/04/25 03:23:07;;;;;;;4.82;1.83;;;12.60;99.90;;;;;;5095097;28;20012;-73
2022/04/25 03:25:34;;;;;;;3.35;1.80;;;12.50;99.90;;;;;;5080842;28;20416;-72
2022/04/25 03:28:00;;;;;;;7.57;1.83;;;12.50;99.90;;;;;;5074941;28;20037;-74
2022/04/25 03:30:27;;;;;;;4.00;1.70;;;12.40;99.90;;;;;;5074819;28;20139;-73
2022/04/25 03:32:53;;;;;;;5.00;1.80;;;12.40;99.90;;;;;;5075175;28;20032;-73
2022/04/25 03:35:22;;;;;;;7.50;2.28;;;12.30;99.90;;;;;;5075805;28;20040;-72
2022/04/25 03:37:49;;;;;;;5.35;2.33;;;12.10;99.90;;;;;;5074798;28;20020;-74
2022/04/25 03:40:16;;;;;;;5.28;1.92;;;12.10;99.90;;;;;;5074720;28;20082;-72
2022/04/25 03:42:46;;;;;;;4.78;1.80;;;12.00;99.90;;;;;;5074029;28;20119;-74
2022/04/25 03:45:16;;;;;;;6.07;2.08;;;12.10;99.90;;;;;;5079353;28;20078;-72
2022/04/25 03:47:43;;;;;;;4.55;2.30;;;12.00;99.90;;;;;;5073798;28;20041;-74
2022/04/25 03:50:10;;;;;;;4.95;2.15;;;12.10;99.90;;;;;;5074847;28;20036;-73
2022/04/25 03:52:38;;;;;;;3.10;1.83;;;12.00;99.90;;;;;;5073830;28;20032;-73
2022/04/25 03:57:53;;;;;;;7.18;1.80;;;12.00;99.90;;;;;;5073936;28;20098;-72
2022/04/25 04:00:19;;;;;;;6.80;2.58;;;12.00;99.90;;;;;;5075953;28;20024;-73
2022/04/25 04:02:45;;;;;;;8.45;2.67;;;12.00;99.90;;;;;;5093572;28;20115;-73
2022/04/25 04:05:12;;;;;;;6.07;2.30;;;12.00;99.90;;;;;;5076034;28;20374;-73
2022/04/25 04:07:38;;;;;;;10.25;2.63;;;12.10;99.90;;;;;;5072295;28;20108;-72
2022/04/25 04:10:05;;;;;;;6.20;2.75;;;12.00;99.90;;;;;;5077070;28;20028;-71
2022/04/25 04:12:31;;;;;;;9.73;2.92;;;12.00;99.90;;;;;;5093342;28;20081;-72
2022/04/25 04:15:07;;;;;;;10.63;2.97;;;12.00;99.90;;;;;;5093178;28;20393;-71
2022/04/25 04:17:34;;;;;;;13.57;3.00;;;12.00;99.90;;;;;;5093358;28;20035;-72
2022/04/25 04:20:00;;;;;;;9.07;2.50;;;12.00;99.90;;;;;;5090491;28;20030;-72
2022/04/25 04:22:30;;;;;;;9.45;2.92;;;12.00;99.90;;;;;;5079681;28;20020;-72
2022/04/25 04:25:14;;;;;;;7.45;2.75;;;12.10;99.90;;;;;;5076005;28;20036;-72
2022/04/25 04:27:42;;;;;;;8.15;3.13;;;12.10;99.90;;;;;;5073292;28;20029;-72
2022/04/25 04:30:10;;;;;;;7.47;2.75;;;12.00;99.90;;;;;;5076245;28;20035;-72
2022/04/25 04:32:38;;;;;;;7.93;3.08;;;12.00;99.90;;;;;;5093060;28;20066;-71
2022/04/25 04:35:08;;;;;;;10.48;2.88;;;12.10;99.90;;;;;;5093384;28;20028;-72
2022/04/25 04:37:34;;;;;;;9.23;2.95;;;12.10;99.90;;;;;;5093345;28;20496;-72
2022/04/25 04:42:45;;;;;;;7.50;3.35;;;12.00;99.90;;;;;;5072778;28;20028;-71
2022/04/25 04:45:11;;;;;;;5.70;2.30;;;12.10;99.90;;;;;;5072393;28;20045;-72
2022/04/25 04:47:39;;;;;;;7.40;3.00;;;12.10;99.90;;;;;;5072855;28;20040;-73
2022/04/25 04:50:07;;;;;;;10.70;2.95;;;12.10;99.90;;;;;;5074073;28;20036;-71
2022/04/25 04:52:33;;;;;;;8.95;2.80;;;12.30;99.90;;;;;;5093383;28;20030;-72
2022/04/25 04:54:59;;;;;;;8.73;2.72;;;12.30;99.90;;;;;;5093606;28;20106;-73
2022/04/25 04:57:25;;;;;;;7.68;2.83;;;12.30;99.90;;;;;;5093645;28;20095;-73
2022/04/25 04:59:53;;;;;;;7.78;3.58;;;12.40;99.90;;;;;;5088012;28;20108;-73
2022/04/25 05:02:19;;;;;;;18.85;6.82;;;12.50;99.90;;;;;;5073244;28;20028;-71
2022/04/25 05:04:45;;;;;;;13.82;5.40;;;12.60;99.90;;;;;;5073167;28;20409;-72
2022/04/25 05:07:11;;;;;;;12.05;4.32;;;12.50;99.90;;;;;;5072474;28;20028;-72
2022/04/25 05:09:37;;;;;;;12.68;4.22;;;12.60;99.90;;;;;;5072999;28;20402;-73
2022/04/25 05:12:03;;;;;;;10.98;3.20;;;12.70;99.90;;;;;;5072469;28;20028;-72
2022/04/25 05:14:29;;;;;;;6.90;2.78;;;12.70;99.90;;;;;;5072753;28;20021;-73
2022/04/25 05:16:55;;;;;;;7.65;2.55;;;12.90;99.90;;;;;;5085456;28;20108;-69
2022/04/25 05:19:21;;;;;;;9.23;3.08;;;13.10;99.90;;;;;;5092206;28;20051;-72
2022/04/25 05:21:47;;;;;;;4.50;2.55;;;13.40;99.90;;;;;;5092883;28;20043;-72
2022/04/25 05:24:13;;;;;;;9.18;2.78;;;13.80;99.90;;;;;;5093052;28;20031;-73
2022/04/25 05:26:39;;;;;;;5.93;2.72;;;14.20;99.90;;;;;;5091371;28;20139;-73
2022/04/25 05:29:05;;;;;;;7.72;2.63;;;14.30;99.90;;;;;;5092972;28;20500;-73
2022/04/25 05:31:31;;;;;;;8.55;2.53;;;14.40;99.90;;;;;;5092705;28;20028;-73
2022/04/25 05:33:57;;;;;;;6.30;2.20;;;14.40;99.90;;;;;;5092774;28;20020;-73
2022/04/25 05:36:24;;;;;;;5.63;3.13;;;14.30;99.90;;;;;;5081694;28;20032;-72
2022/04/25 05:38:50;;;;;;;9.23;2.53;;;14.40;99.90;;;;;;5072351;28;20015;-72
2022/04/25 05:41:16;;;;;;;7.15;3.65;;;14.50;99.90;;;;;;5072554;28;20024;-71
2022/04/25 05:43:42;;;;;;;8.88;3.75;;;14.70;99.90;;;;;;5074115;28;20066;-72
2022/04/25 05:46:08;;;;;;;7.72;2.85;;;14.80;99.90;;;;;;5092208;28;20043;-72
2022/04/25 05:54:04;;;;;;;11.65;3.25;;;15.60;99.90;;;;;;5087190;28;20028;-72
2022/04/25 05:56:29;;;;;;;7.63;2.97;;;15.60;99.90;;;;;;5071973;28;20065;-73
2022/04/25 05:58:55;;;;;;;6.22;2.88;;;15.90;99.90;;;;;;5071684;28;20024;-72
2022/04/25 06:01:21;;;;;;;7.20;2.80;;;16.10;99.90;;;;;;5071346;28;20089;-72
2022/04/25 06:03:47;;;;;;;7.43;2.47;;;16.50;99.90;;;;;;5068673;28;20059;-71
2022/04/25 06:06:13;;;;;;;8.57;2.60;;;16.50;99.90;;;;;;5071513;28;20020;-71
2022/04/25 06:08:39;;;;;;;5.78;2.63;;;16.80;99.90;;;;;;5070843;28;20626;-72
2022/04/25 06:11:05;;;;;;;7.30;3.05;;;17.20;99.90;;;;;;5070971;28;20483;-71
2022/04/25 06:13:31;;;;;;;7.82;3.30;;;17.50;99.90;;;;;;5061337;28;20099;-73
2022/04/25 06:15:56;;;;;;;7.55;2.30;;;17.70;99.90;;;;;;5056672;28;20029;-73
2022/04/25 06:18:22;;;;;;;7.72;2.72;;;17.60;99.90;;;;;;5063525;28;20078;-72
2022/04/25 06:20:50;;;;;;;9.98;2.40;;;17.90;99.90;;;;;;5069930;28;20028;-72
2022/04/25 06:23:17;;;;;;;5.38;1.77;;;18.10;99.90;;;;;;5070558;28;20028;-73
2022/04/25 06:25:43;;;;;;;3.50;1.70;;;18.10;99.90;;;;;;5070531;28;20496;-73
2022/04/25 06:28:09;;;;;;;6.15;2.40;;;18.30;99.90;;;;;;5068173;28;20013;-73
2022/04/25 06:30:35;;;;;;;4.43;1.60;;;18.70;99.90;;;;;;5070677;28;20064;-73
2022/04/25 06:33:01;;;;;;;7.43;2.40;;;18.80;98.60;;;;;;5070713;28;20526;-71
2022/04/25 06:35:28;;;;;;;5.65;1.90;;;18.80;99.90;;;;;;5071336;28;20025;-71
2022/04/25 06:37:54;;;;;;;8.52;2.58;;;18.40;97.70;;;;;;5071764;28;20039;-73
2022/04/25 06:40:20;;;;;;;4.88;2.00;;;18.20;98.80;;;;;;5072553;28;20021;-72
2022/04/25 06:42:48;;;;;;;4.20;2.38;;;18.10;99.90;;;;;;5070760;28;20034;-73
2022/04/25 06:45:15;;;;;;;5.55;2.00;;;18.20;99.90;;;;;;5070837;28;20040;-68
2022/04/25 06:47:41;;;;;;;6.43;2.55;;;18.40;98.20;;;;;;5071886;28;20037;-73
2022/04/25 06:50:08;;;;;;;6.35;2.45;;;18.60;99.90;;;;;;5059098;28;20029;-73
2022/04/25 06:52:34;;;;;;;6.57;2.00;;;18.50;99.90;;;;;;5050653;28;20039;-73
2022/04/25 06:55:00;;;;;;;6.82;3.00;;;18.90;99.60;;;;;;5050691;28;20032;-74
2022/04/25 06:57:25;;;;;;;7.00;2.85;;;18.90;99.90;;;;;;5053725;28;20045;-72
2022/04/25 06:59:51;;;;;;;10.30;3.22;;;19.20;99.90;;;;;;5050932;28;20032;-72
2022/04/25 07:02:17;;;;;;;6.25;2.70;;;19.10;99.90;;;;;;5050708;28;20017;-72
2022/04/25 07:04:43;;;;;;;4.35;2.45;;;19.30;99.70;;;;;;5053063;28;20063;-71
2022/04/25 07:07:09;;;;;;;5.88;3.10;;;19.40;99.90;;;;;;5063786;28;20028;-73
2022/04/25 07:09:36;;;;;;;10.27;2.88;;;19.50;99.30;;;;;;5091757;28;20032;-73
2022/04/25 07:12:02;;;;;;;8.05;2.83;;;19.60;95.40;;;;;;5082199;28;20107;-73
2022/04/25 07:14:28;;;;;;;6.90;2.70;;;19.60;99.70;;;;;;5070773;28;20108;-72
2022/04/25 07:16:57;;;;;;;5.93;2.30;;;19.30;97.40;;;;;;5070074;28;20033;-72
2022/04/25 07:19:23;;;;;;;6.55;2.10;;;19.70;99.20;;;;;;5070588;28;20021;-73
2022/04/25 07:30:04;;;;;;;5.07;1.52;;;19.40;97.80;;;;;;5050809;28;20518;-73
2022/04/25 07:32:30;;;;;;;4.30;2.17;;;19.40;96.10;;;;;;5073607;28;20074;-73
2022/04/25 07:34:56;;;;;;;2.67;1.48;;;19.70;99.00;;;;;;5091093;28;20039;-73
2022/04/25 07:37:22;;;;;;;4.32;1.45;;;19.50;97.60;;;;;;5091206;28;20103;-73
2022/04/25 07:39:49;;;;;;;8.07;1.80;;;19.10;97.20;;;;;;5081041;28;20071;-72
2022/04/25 07:42:18;;;;;;;4.53;1.90;;;18.90;98.50;;;;;;5071159;28;20052;-72
2022/04/25 07:44:45;;;;;;;10.40;2.67;;;19.10;98.60;;;;;;5074562;28;20075;-71
2022/04/25 07:47:11;;;;;;;6.15;1.63;;;19.20;99.90;;;;;;5076318;28;20218;-73
2022/04/25 07:49:38;;;;;;;5.78;2.10;;;19.00;98.70;;;;;;5094592;28;20032;-73
2022/04/25 07:52:04;;;;;;;1.90;1.15;;;19.10;96.30;;;;;;5094729;28;20549;-72
2022/04/25 07:54:30;;;;;;;4.38;1.58;;;19.20;98.70;;;;;;5094988;28;20028;-71
2022/04/25 07:56:56;;;;;;;3.58;1.52;;;19.10;96.40;;;;;;5094410;28;20073;-70
2022/04/25 07:59:22;;;;;;;6.60;1.50;;;19.20;99.90;;;;;;5074547;28;20024;-71
2022/04/25 08:01:48;;;;;;;4.68;1.73;;;19.30;96.60;;;;;;5072620;28;20020;-73
2022/04/25 08:04:14;;;;;;;5.88;1.60;;;19.50;96.60;;;;;;5074581;28;20021;-72
2022/04/25 08:06:39;;;;;;;6.70;1.40;;;19.70;97.90;;;;;;5073432;28;20024;-72
2022/04/25 08:09:06;;;;;;;4.68;1.45;;;20.20;93.40;;;;;;5074296;28;20065;-70
2022/04/25 08:11:32;;;;;;;3.53;1.30;;;20.60;92.50;;;;;;5074257;28;20474;-74
2022/04/25 08:19:30;;;;;;;2.35;1.20;;;20.90;82.60;;;;;;5092615;28;20020;-72
2022/04/25 08:21:57;;;;;;;3.92;1.05;;;21.00;85.20;;;;;;5094079;28;20020;-74
2022/04/25 08:24:23;;;;;;;3.13;1.10;;;21.00;80.90;;;;;;5093228;28;20070;-73
2022/04/25 08:26:49;;;;;;;2.03;0.80;;;20.50;78.20;;;;;;5078564;28;20321;-73
2022/04/25 08:29:15;;;;;;;1.35;0.40;;;20.00;76.20;;;;;;5068823;28;20482;-74
2022/04/25 08:31:41;;;;;;;2.10;0.65;;;19.60;76.50;;;;;;5072681;28;20024;-68
2022/04/25 08:34:09;;;;;;;2.83;0.77;;;19.10;76.10;;;;;;5073420;28;20032;-73
2022/04/25 08:36:35;;;;;;;4.40;0.98;;;18.90;77.90;;;;;;5089616;28;20024;-72
2022/04/25 08:39:03;;;;;;;4.07;1.30;;;18.60;79.30;;;;;;5083272;28;20532;-69
2022/04/25 08:41:59;;;;;;;4.53;1.77;;;18.30;82.60;;;;;;5073494;28;20523;-67
2022/04/25 08:44:25;;;;;;;6.63;1.17;;;18.20;88.70;;;;;;5072646;28;20072;-73
2022/04/25 08:46:54;;;;;;;3.00;0.93;;;18.10;89.50;;;;;;5073221;28;20060;-66
2022/04/25 08:49:21;;;;;;;6.15;1.40;;;18.10;90.60;;;;;;5073275;28;20502;-69
2022/04/25 08:51:49;;;;;;;5.30;1.27;;;18.20;93.80;;;;;;5073261;28;20016;-70
2022/04/25 08:54:15;;;;;;;7.57;2.00;;;18.20;94.40;;;;;;5073164;28;20074;-69
2022/04/25 08:56:42;;;;;;;6.88;2.13;;;18.50;95.90;;;;;;5087961;28;20024;-71
2022/04/25 08:59:09;;;;;;;4.68;2.15;;;18.70;93.00;;;;;;5093074;28;20028;-72
2022/04/25 09:01:37;;;;;;;10.23;1.85;;;19.40;96.00;;;;;;5093276;28;20525;-67
2022/04/25 09:04:03;;;;;;;3.80;1.67;;;19.80;94.20;;;;;;5093291;28;20044;-69
2022/04/25 09:06:30;;;;;;;3.38;1.20;;;20.10;88.70;;;;;;5091270;28;20020;-67
2022/04/25 09:08:57;;;;;;;3.30;1.30;;;20.40;84.50;;;;;;5073866;28;20051;-69
2022/04/25 09:14:12;;;;;;;2.30;1.30;;;20.20;75.90;;;;;;5072823;28;20024;-66
2022/04/25 09:16:39;;;;;;;4.05;1.00;;;20.00;84.00;;;;;;5073331;28;20059;-72
2022/04/25 09:19:05;;;;;;;4.70;2.00;;;20.00;85.70;;;;;;5073018;28;20013;-70
2022/04/25 09:21:39;;;;;;;5.97;1.77;;;20.00;85.90;;;;;;5073016;28;20390;-70
2022/04/25 09:24:24;;;;;;;2.30;1.40;;;20.40;91.40;;;;;;5072786;28;20027;-70
2022/04/25 09:27:11;;;;;;;5.10;1.30;;;19.80;79.80;;;;;;5073651;28;20027;-71
2022/04/25 09:29:39;;;;;;;1.48;0.90;;;19.40;89.80;;;;;;5072425;28;20063;-71
2022/04/25 09:32:06;;;;;;;1.42;0.75;;;19.30;81.70;;;;;;5072387;28;20028;-68
2022/04/25 09:37:17;;;;;;;3.83;1.13;;;20.10;86.80;;;;;;5082679;28;20032;-69
2022/04/25 09:39:44;;;;;;;2.47;0.77;;;20.30;79.00;;;;;;5092181;28;20104;-70
2022/04/25 09:42:10;;;;;;;2.47;1.00;;;20.00;83.90;;;;;;5093003;28;20036;-71
2022/04/25 09:44:56;;;;;;;3.50;1.38;;;20.10;78.50;;;;;;5084359;28;20072;-72
2022/04/25 09:47:29;;;;;;;4.63;1.23;;;19.90;89.80;;;;;;5072303;28;20029;-72
2022/04/25 09:50:12;;;;;;;3.00;1.10;;;19.40;78.30;;;;;;5073024;28;20364;-72
2022/04/25 09:52:54;;;;;;;4.25;0.98;;;19.30;85.30;;;;;;5080893;28;20044;-73
2022/04/25 09:55:22;;;;;;;0.73;0.65;;;19.50;82.70;;;;;;5077679;28;20474;-73
2022/04/25 09:57:50;;;;;;;3.35;0.90;;;19.50;75.80;;;;;;5071617;28;20391;-72
2022/04/25 10:00:38;;;;;;;0.57;0.50;;;19.50;78.90;;;;;;5072252;28;20067;-70
2022/04/25 10:03:08;;;;;;;1.50;0.90;;;19.70;81.70;;;;;;5071855;28;20478;-68
2022/04/25 10:05:46;;;;;;;3.85;1.00;;;19.40;78.80;;;;;;5071641;28;20066;-71
2022/04/25 10:08:16;;;;;;;1.60;0.70;;;19.70;85.00;;;;;;5073844;28;20024;-71
2022/04/25 10:10:49;;;;;;;2.75;0.70;;;19.60;77.30;;;;;;5090013;28;20051;-65
2022/04/25 10:13:17;;;;;;;1.13;0.80;;;19.90;83.10;;;;;;5069429;28;20470;-72
2022/04/25 10:15:44;;;;;;;3.83;0.60;;;20.00;78.40;;;;;;5072066;28;20471;-71
2022/04/25 10:18:11;;;;;;;1.48;0.30;;;20.10;78.60;;;;;;5071249;28;20017;-72
2022/04/25 10:20:40;;;;;;;1.40;0.80;;;19.90;74.70;;;;;;5071457;28;20025;-71
2022/04/25 10:23:11;;;;;;;3.67;0.82;;;19.80;75.10;;;;;;5071367;28;20036;-72
2022/04/25 10:25:39;;;;;;;2.85;0.65;;;19.80;74.70;;;;;;5072149;28;20386;-72
2022/04/25 10:28:08;;;;;;;0.40;0.40;;;19.90;77.70;;;;;;5075036;28;20104;-71
2022/04/25 10:30:36;;;;;;;0.95;0.65;;;19.80;77.00;;;;;;5071683;28;20414;-71
2022/04/25 10:33:15;;;;;;;1.80;0.60;;;19.80;80.30;;;;;;5070368;28;20043;-71
2022/04/25 10:35:42;;;;;;;1.30;0.35;;;20.20;82.60;;;;;;5079456;28;20115;-70
2022/04/25 10:38:47;;;;;;;2.75;0.45;;;20.20;80.40;;;;;;5077231;28;20016;-71
2022/04/25 10:44:19;;;;;;;2.45;0.88;;;20.30;72.70;;;;;;5050462;28;20059;-64
2022/04/25 10:47:03;;;;;;;1.58;0.68;;;20.40;78.60;;;;;;5049909;28;20435;-71
2022/04/25 10:49:34;;;;;;;0.40;0.40;;;20.70;81.20;;;;;;5053337;28;20037;-71
2022/04/25 10:52:01;;;;;;;1.88;0.60;;;20.70;76.00;;;;;;5061138;28;20490;-70
2022/04/25 10:54:28;;;;;;;2.42;1.63;;;20.70;70.70;;;;;;5079097;28;20042;-71
2022/04/25 10:57:21;;;;;;;2.35;1.10;;;20.40;72.00;;;;;;5091771;28;20061;-70
2022/04/25 10:59:47;;;;;;;2.50;0.80;;;20.40;77.00;;;;;;5076882;28;20047;-71
2022/04/25 11:02:23;;;;;;;1.30;0.70;;;20.60;78.50;;;;;;5092119;28;20032;-74
2022/04/25 11:05:11;;;;;;;1.27;0.70;;;20.70;75.60;;;;;;5080296;28;20470;-73
2022/04/25 11:07:41;;;;;;;1.30;0.90;;;20.60;72.10;;;;;;5090072;28;20458;-72
2022/04/25 11:10:11;;;;;;;0.75;0.65;;;20.70;75.10;;;;;;5091185;28;20064;-72
2022/04/25 11:12:59;;;;;;;1.10;0.50;;;20.70;75.20;;;;;;5091268;28;20085;-72
2022/04/25 11:15:49;;;;;;;3.50;0.85;;;20.80;74.90;;;;;;5091640;28;20027;-72
2022/04/25 11:18:33;;;;;;;2.67;0.95;;;20.90;75.70;;;;;;5092680;28;20032;-69
2022/04/25 11:21:05;;;;;;;1.08;0.88;;;20.70;69.20;;;;;;5094983;28;20120;-71
2022/04/25 11:23:32;;;;;;;5.57;0.85;;;20.50;75.10;;;;;;5091136;28;20036;-69
2022/04/25 11:25:59;;;;;;;3.45;1.50;;;20.60;73.60;;;;;;5075125;28;20095;-72
2022/04/25 11:28:27;;;;;;;0.55;0.55;;;20.80;71.30;;;;;;5081273;28;20028;-72
2022/04/25 11:31:26;;;;;;;1.55;0.68;;;21.10;72.00;;;;;;5094781;28;20496;-70
2022/04/25 11:33:54;;;;;;;1.63;0.57;;;21.10;70.00;;;;;;5038479;28;20187;-69
2022/04/25 11:36:23;;;;;;;1.08;0.55;;;21.20;74.60;;;;;;5032167;28;20033;-72
2022/04/25 11:41:36;;;;;;;2.50;0.60;;;21.20;71.40;;;;;;5031448;28;20143;-71
2022/04/25 11:44:04;;;;;;;0.57;0.43;;;21.40;74.20;;;;;;5032448;28;20036;-70
2022/04/25 11:46:32;;;;;;;0.47;0.30;;;21.50;72.70;;;;;;5032094;28;20049;-67
2022/04/25 11:48:58;;;;;;;1.20;0.50;;;21.20;68.40;;;;;;5031620;28;20025;-70
2022/04/25 11:51:29;;;;;;;1.60;0.90;;;21.10;68.70;;;;;;5031922;28;20056;-72
2022/04/25 11:54:00;;;;;;;0.35;0.30;;;21.10;73.40;;;;;;5032201;28;20052;-72
2022/04/25 11:56:30;;;;;;;3.50;0.80;;;20.80;67.80;;;;;;5032279;28;20041;-71
2022/04/25 11:58:57;;;;;;;1.23;0.63;;;21.10;70.60;;;;;;5049220;28;20056;-69
2022/04/25 12:01:39;;;;;;;4.32;1.23;;;21.00;70.80;;;;;;5052226;28;20111;-70
2022/04/25 12:04:26;;;;;;;1.98;0.75;;;21.30;72.60;;;;;;5042969;28;20048;-70
2022/04/25 12:06:53;;;;;;;9.93;0.50;;;21.50;70.10;;;;;;5032050;28;20029;-72
2022/04/25 12:17:44;;;;;;;0.30;0.30;;;21.20;69.70;;;;;;5091999;28;20478;-70
2022/04/25 12:20:12;;;;;;;0.80;0.60;;;21.00;65.30;;;;;;5082937;28;20467;-72
2022/04/25 12:22:49;;;;;;;0.45;0.30;;;21.00;67.20;;;;;;5073728;28;20116;-72
2022/04/25 12:25:21;;;;;;;0.57;0.35;;;21.10;67.00;;;;;;5073150;28;20097;-68
2022/04/25 12:28:24;;;;;;;3.00;0.73;;;21.10;67.00;;;;;;5077387;28;20454;-71
2022/04/25 12:30:53;;;;;;;0.95;0.50;;;21.20;67.30;;;;;;5073787;28;20119;-71
2022/04/25 12:33:24;;;;;;;0.40;0.30;;;21.20;67.30;;;;;;5073368;28;20013;-72
2022/04/25 12:36:16;;;;;;;6.07;0.80;;;21.50;72.10;;;;;;5074010;28;20044;-71
2022/04/25 12:39:15;;;;;;;0.40;0.30;;;21.50;69.20;;;;;;5081100;28;20032;-72
2022/04/25 12:41:58;;;;;;;1.80;0.50;;;21.50;66.80;;;;;;5083379;28;20024;-72
2022/04/25 12:44:27;;;;;;;1.35;0.35;;;21.40;66.40;;;;;;5072415;28;20017;-72
2022/04/25 12:47:04;;;;;;;1.15;0.52;;;21.40;66.70;;;;;;5073401;28;20115;-68
2022/04/25 12:49:43;;;;;;;0.63;0.40;;;21.20;67.10;;;;;;5076668;28;20016;-71
2022/04/25 12:52:10;;;;;;;0.70;0.40;;;21.40;69.10;;;;;;5072775;28;20031;-73
2022/04/25 12:54:43;;;;;;;1.13;0.70;;;21.50;65.90;;;;;;5082493;28;20079;-69
2022/04/25 12:57:09;;;;;;;1.85;0.50;;;21.60;66.70;;;;;;5074797;28;20067;-73
2022/04/25 12:59:36;;;;;;;0.95;0.30;;;21.60;67.70;;;;;;5080344;28;20023;-73
2022/04/25 13:02:15;;;;;;;0.40;0.32;;;21.30;65.00;;;;;;5091868;28;20052;-72
2022/04/25 13:04:52;;;;;;;0.30;0.30;;;21.50;65.70;;;;;;5081647;28;20021;-71
2022/04/25 13:07:33;;;;;;;0.95;0.40;;;21.30;64.20;;;;;;5073989;28;20497;-73
2022/04/25 13:10:01;;;;;;;3.53;0.57;;;21.40;68.50;;;;;;5072019;28;20039;-71
2022/04/25 13:12:34;;;;;;;2.00;0.65;;;21.30;68.30;;;;;;5073524;28;20052;-70
2022/04/25 13:15:01;;;;;;;0.73;0.30;;;21.30;66.20;;;;;;5092450;28;20023;-70
2022/04/25 13:17:27;;;;;;;1.45;0.60;;;21.30;64.50;;;;;;5082282;28;20054;-66
2022/04/25 13:19:53;;;;;;;0.30;0.30;;;21.40;67.90;;;;;;5079441;28;20032;-69
2022/04/25 13:22:18;;;;;;;0.75;0.47;;;21.30;64.20;;;;;;5084418;28;20466;-71
2022/04/25 13:24:48;;;;;;;1.77;0.50;;;21.50;67.10;;;;;;5073800;28;20027;-71
2022/04/25 13:27:15;;;;;;;0.45;0.40;;;21.40;66.60;;;;;;5071218;28;20109;-71
2022/04/25 13:29:42;;;;;;;1.48;0.50;;;21.60;66.30;;;;;;5072166;28;20028;-71
2022/04/25 13:32:11;;;;;;;2.35;0.80;;;21.60;67.40;;;;;;5072164;28;20375;-72
2022/04/25 13:34:37;;;;;;;0.82;0.40;;;21.70;64.70;;;;;;5082929;28;20020;-71
2022/04/25 13:37:03;;;;;;;0.45;0.32;;;21.50;66.00;;;;;;5087362;28;20036;-73
2022/04/25 13:39:33;;;;;;;0.55;0.50;;;21.60;68.40;;;;;;5092627;28;20026;-72